createdAt,value
2023-05-07T00:02:08.409Z,101561.13
2023-05-07T00:04:38.608Z,101561.13
2023-05-07T00:07:06.582Z,101560.28
2023-05-07T00:09:34.481Z,101562.88
2023-05-07T00:12:02.167Z,101561.97
2023-05-07T00:14:29.206Z,101561.13
2023-05-07T00:16:56.669Z,101565.44
2023-05-07T00:19:24.302Z,101557.63
2023-05-07T00:21:51.493Z,101556.69
2023-05-07T00:24:18.531Z,101560.16
2023-05-07T00:26:45.757Z,101554.03
2023-05-07T00:29:12.790Z,101561.84
2023-05-07T00:31:39.825Z,101554.03
2023-05-07T00:34:07.206Z,101557.44
2023-05-07T00:36:34.454Z,101554.84
2023-05-07T00:39:04.374Z,101550.41
2023-05-07T00:41:33.946Z,101547.78
2023-05-07T00:44:02.567Z,101546.03
2023-05-07T00:46:31.833Z,101534.66
2023-05-07T00:48:59.420Z,101538.16
2023-05-07T00:51:28.349Z,101536.41
2023-05-07T00:53:55.724Z,101537.28
2023-05-07T00:56:23.824Z,101541.63
2023-05-07T00:58:51.430Z,101539.88
2023-05-07T01:01:18.638Z,101539.91
2023-05-07T01:03:45.933Z,101539.06
2023-05-07T01:06:17.633Z,101532.06
2023-05-07T01:08:46.247Z,101542.53
2023-05-07T01:11:13.565Z,101527.78
2023-05-07T01:13:41.812Z,101534.75
2023-05-07T01:16:10.557Z,101527.78
2023-05-07T01:18:37.829Z,101534.78
2023-05-07T01:21:06.562Z,101525.19
2023-05-07T01:23:34.772Z,101529.56
2023-05-07T01:26:01.792Z,101533.88
2023-05-07T01:28:28.787Z,101526.84
2023-05-07T01:31:02.764Z,101534.66
2023-05-07T01:33:33.799Z,101533.78
2023-05-07T01:36:03.217Z,101538.16
2023-05-07T01:38:30.868Z,101537.25
2023-05-07T01:40:58.848Z,101534.66
2023-05-07T01:43:26.310Z,101539.03
2023-05-07T01:45:54.419Z,101536.41
2023-05-07T01:48:22.154Z,101524.22
2023-05-07T01:50:50.027Z,101531.31
2023-05-07T01:53:17.341Z,101533.03
2023-05-07T01:55:44.339Z,101533.91
2023-05-07T01:58:11.694Z,101537.38
2023-05-07T02:00:38.757Z,101537.38
2023-05-07T02:03:06.531Z,101530.47
2023-05-07T02:05:33.700Z,101527.03
2023-05-07T02:08:00.762Z,101520.09
2023-05-07T02:10:27.901Z,101527.84
2023-05-07T02:12:55.006Z,101527.91
2023-05-07T02:15:22.090Z,101531.38
2023-05-07T02:18:07.373Z,101530.47
2023-05-07T02:20:34.693Z,101528.69
2023-05-07T02:23:01.871Z,101536.53
2023-05-07T02:25:30.108Z,101525.19
2023-05-07T02:27:57.218Z,101526.91
2023-05-07T02:30:26.172Z,101529.50
2023-05-07T02:32:53.613Z,101532.94
2023-05-07T02:35:20.827Z,101519.94
2023-05-07T02:37:47.939Z,101525.06
2023-05-07T02:40:14.955Z,101532.88
2023-05-07T02:42:41.937Z,101539.84
2023-05-07T02:45:09.653Z,101537.19
2023-05-07T02:47:36.928Z,101534.59
2023-05-07T02:50:04.623Z,101535.44
2023-05-07T02:52:31.679Z,101532.84
2023-05-07T02:54:58.765Z,101529.28
2023-05-07T02:57:25.820Z,101531.88
2023-05-07T02:59:53.303Z,101531.97
2023-05-07T03:02:21.148Z,101532.84
2023-05-07T03:04:48.206Z,101528.53
2023-05-07T03:07:15.440Z,101525.94
2023-05-07T03:09:42.463Z,101529.44
2023-05-07T03:12:09.522Z,101524.25
2023-05-07T03:14:36.678Z,101528.59
2023-05-07T03:17:03.915Z,101526.00
2023-05-07T03:19:31.639Z,101529.56
2023-05-07T03:21:58.883Z,101523.47
2023-05-07T03:24:25.982Z,101517.31
2023-05-07T03:26:53.227Z,101523.44
2023-05-07T03:29:20.728Z,101527.78
2023-05-07T03:31:47.998Z,101526.91
2023-05-07T03:34:15.256Z,101518.22
2023-05-07T03:36:42.293Z,101524.28
2023-05-07T03:39:09.358Z,101523.44
2023-05-07T03:41:36.569Z,101514.72
2023-05-07T03:44:03.697Z,101524.28
2023-05-07T03:46:30.852Z,101525.13
2023-05-07T03:48:57.865Z,101524.22
2023-05-07T03:51:25.358Z,101525.97
2023-05-07T03:53:54.481Z,101526.84
2023-05-07T03:56:21.945Z,101527.69
2023-05-07T03:58:49.137Z,101533.81
2023-05-07T04:01:16.209Z,101527.69
2023-05-07T04:03:43.277Z,101538.09
2023-05-07T04:06:10.570Z,101535.53
2023-05-07T04:08:37.709Z,101533.81
2023-05-07T04:11:04.825Z,101537.31
2023-05-07T04:13:32.201Z,101543.44
2023-05-07T04:15:59.601Z,101539.00
2023-05-07T04:18:26.722Z,101546.00
2023-05-07T04:20:53.896Z,101549.44
2023-05-07T04:23:21.154Z,101544.22
2023-05-07T04:25:48.200Z,101543.31
2023-05-07T04:28:15.298Z,101546.78
2023-05-07T04:30:42.486Z,101552.84
2023-05-07T04:33:09.693Z,101549.38
2023-05-07T04:35:37.027Z,101553.78
2023-05-07T04:38:04.638Z,101552.06
2023-05-07T04:40:31.698Z,101558.16
2023-05-07T04:42:58.752Z,101554.75
2023-05-07T04:45:25.856Z,101553.88
2023-05-07T04:47:53.041Z,101552.94
2023-05-07T04:50:20.911Z,101550.34
2023-05-07T04:52:48.057Z,101560.78
2023-05-07T04:55:15.844Z,101558.16
2023-05-07T04:57:42.901Z,101562.56
2023-05-07T05:00:11.116Z,101563.44
2023-05-07T05:02:38.503Z,101560.88
2023-05-07T05:05:06.045Z,101568.66
2023-05-07T05:07:33.175Z,101572.16
2023-05-07T05:10:00.664Z,101564.34
2023-05-07T05:12:27.812Z,101561.69
2023-05-07T05:14:55.313Z,101568.66
2023-05-07T05:17:22.450Z,101561.66
2023-05-07T05:19:49.484Z,101558.22
2023-05-07T05:22:16.924Z,101561.69
2023-05-07T05:24:44.033Z,101568.66
2023-05-07T05:27:11.294Z,101565.19
2023-05-07T05:29:38.344Z,101570.41
2023-05-07T05:32:05.572Z,101564.28
2023-05-07T05:34:34.118Z,101564.28
2023-05-07T05:37:01.660Z,101577.44
2023-05-07T05:39:28.747Z,101577.44
2023-05-07T05:41:55.851Z,101572.22
2023-05-07T05:44:23.401Z,101587.88
2023-05-07T05:46:50.956Z,101593.13
2023-05-07T05:49:18.115Z,101589.63
2023-05-07T05:51:45.517Z,101597.50
2023-05-07T05:54:12.583Z,101590.59
2023-05-07T05:56:39.682Z,101600.97
2023-05-07T05:59:07.001Z,101594.94
2023-05-07T06:01:34.173Z,101595.84
2023-05-07T06:04:01.755Z,101587.19
2023-05-07T06:06:29.140Z,101602.94
2023-05-07T06:08:56.416Z,101601.19
2023-05-07T06:11:23.594Z,101607.31
2023-05-07T06:13:50.668Z,101606.41
2023-05-07T06:16:17.870Z,101610.72
2023-05-07T06:18:47.202Z,101607.19
2023-05-07T06:21:14.807Z,101609.00
2023-05-07T06:23:41.928Z,101607.38
2023-05-07T06:26:09.066Z,101612.59
2023-05-07T06:28:36.979Z,101611.78
2023-05-07T06:31:14.514Z,101616.16
2023-05-07T06:33:41.934Z,101623.13
2023-05-07T06:36:09.012Z,101624.03
2023-05-07T06:38:36.052Z,101621.44
2023-05-07T06:41:03.169Z,101625.84
2023-05-07T06:43:31.484Z,101622.38
2023-05-07T06:45:58.699Z,101626.69
2023-05-07T06:48:25.811Z,101622.28
2023-05-07T06:50:53.166Z,101628.41
2023-05-07T06:53:20.527Z,101625.81
2023-05-07T06:55:47.616Z,101626.66
2023-05-07T06:58:14.701Z,101624.03
2023-05-07T07:00:41.858Z,101627.50
2023-05-07T07:03:09.029Z,101625.78
2023-05-07T07:05:36.531Z,101630.16
2023-05-07T07:08:03.622Z,101633.63
2023-05-07T07:10:30.952Z,101634.53
2023-05-07T07:12:58.107Z,101620.63
2023-05-07T07:15:26.041Z,101625.94
2023-05-07T07:17:53.699Z,101619.84
2023-05-07T07:20:20.843Z,101625.09
2023-05-07T07:22:47.964Z,101619.94
2023-05-07T07:25:15.067Z,101614.06
2023-05-07T07:27:42.148Z,101608.00
2023-05-07T07:30:09.851Z,101608.00
2023-05-07T07:32:37.235Z,101610.66
2023-05-07T07:35:05.680Z,101616.03
2023-05-07T07:37:32.806Z,101620.44
2023-05-07T07:40:01.624Z,101621.34
2023-05-07T07:42:30.194Z,101629.28
2023-05-07T07:44:58.099Z,101632.78
2023-05-07T07:47:25.200Z,101632.78
2023-05-07T07:49:52.790Z,101631.06
2023-05-07T07:52:20.220Z,101628.47
2023-05-07T07:54:47.331Z,101634.59
2023-05-07T07:57:14.563Z,101639.81
2023-05-07T07:59:43.397Z,101648.63
2023-05-07T08:02:10.592Z,101639.97
2023-05-07T08:04:38.698Z,101645.28
2023-05-07T08:07:06.852Z,101645.28
2023-05-07T08:09:33.886Z,101642.69
2023-05-07T08:12:02.185Z,101644.53
2023-05-07T08:14:29.430Z,101650.63
2023-05-07T08:16:56.651Z,101648.91
2023-05-07T08:19:24.407Z,101650.69
2023-05-07T08:21:51.658Z,101641.97
2023-05-07T08:24:19.537Z,101654.16
2023-05-07T08:26:47.745Z,101648.94
2023-05-07T08:29:14.916Z,101647.19
2023-05-07T08:31:42.050Z,101653.28
2023-05-07T08:34:10.153Z,101656.78
2023-05-07T08:36:37.542Z,101646.25
2023-05-07T08:39:04.819Z,101650.63
2023-05-07T08:41:32.375Z,101651.47
2023-05-07T08:44:03.877Z,101644.47
2023-05-07T08:46:33.253Z,101654.06
2023-05-07T08:49:00.820Z,101648.84
2023-05-07T08:51:28.198Z,101656.69
2023-05-07T08:53:55.424Z,101662.78
2023-05-07T08:56:22.948Z,101664.44
2023-05-07T08:58:50.015Z,101660.91
2023-05-07T09:01:18.215Z,101664.44
2023-05-07T09:03:47.034Z,101655.72
2023-05-07T09:06:14.340Z,101655.72
2023-05-07T09:08:41.353Z,101659.25
2023-05-07T09:11:08.829Z,101654.03
2023-05-07T09:13:36.053Z,101656.69
2023-05-07T09:16:12.243Z,101653.16
2023-05-07T09:18:43.524Z,101655.81
2023-05-07T09:21:11.828Z,101654.91
2023-05-07T09:23:40.025Z,101655.66
2023-05-07T09:26:12.513Z,101665.22
2023-05-07T09:28:43.157Z,101662.63
2023-05-07T09:31:11.441Z,101654.78
2023-05-07T09:33:39.386Z,101659.22
2023-05-07T09:36:08.218Z,101651.38
2023-05-07T09:38:36.440Z,101653.97
2023-05-07T09:41:11.685Z,101660.97
2023-05-07T09:43:40.217Z,101656.66
2023-05-07T09:46:09.732Z,101660.16
2023-05-07T09:48:40.307Z,101656.69
2023-05-07T09:51:16.720Z,101668.06
2023-05-07T09:53:47.159Z,101660.22
2023-05-07T09:56:16.516Z,101664.63
2023-05-07T09:58:44.769Z,101667.22
2023-05-07T10:01:13.095Z,101674.19
2023-05-07T10:03:43.330Z,101666.31
2023-05-07T10:06:11.609Z,101672.47
2023-05-07T10:08:38.873Z,101672.50
2023-05-07T10:11:07.049Z,101678.63
2023-05-07T10:13:36.918Z,101683.00
2023-05-07T10:16:07.217Z,101680.38
2023-05-07T10:18:34.582Z,101672.53
2023-05-07T10:21:24.209Z,101676.91
2023-05-07T10:23:58.672Z,101679.56
2023-05-07T10:26:28.372Z,101679.56
2023-05-07T10:29:08.545Z,101678.72
2023-05-07T10:32:15.801Z,101683.00
2023-05-07T10:34:48.039Z,101674.34
2023-05-07T10:37:16.193Z,101671.69
2023-05-07T10:39:43.720Z,101666.44
2023-05-07T10:42:11.586Z,101667.31
2023-05-07T10:44:38.833Z,101671.66
2023-05-07T10:47:13.905Z,101664.66
2023-05-07T10:49:46.921Z,101674.22
2023-05-07T10:52:19.574Z,101677.72
2023-05-07T10:54:47.278Z,101680.34
2023-05-07T10:57:32.776Z,101678.59
2023-05-07T10:59:59.902Z,101680.22
2023-05-07T11:03:01.032Z,101676.69
2023-05-07T11:05:31.785Z,101677.53
2023-05-07T11:08:02.854Z,101668.75
2023-05-07T11:10:48.527Z,101673.94
2023-05-07T11:13:16.861Z,101677.38
2023-05-07T11:15:48.461Z,101682.63
2023-05-07T11:18:17.378Z,101680.00
2023-05-07T11:20:47.304Z,101683.56
2023-05-07T11:23:36.076Z,101685.25
2023-05-07T11:26:11.195Z,101681.72
2023-05-07T11:28:43.180Z,101686.03
2023-05-07T11:31:12.023Z,101685.16
2023-05-07T11:33:39.525Z,101692.13
2023-05-07T11:36:09.172Z,101695.63
2023-05-07T11:38:38.084Z,101691.22
2023-05-07T11:41:06.278Z,101695.53
2023-05-07T11:43:34.446Z,101688.44
2023-05-07T11:46:12.653Z,101692.81
2023-05-07T11:48:40.177Z,101691.91
2023-05-07T11:51:10.006Z,101679.63
2023-05-07T11:53:41.714Z,101686.50
2023-05-07T11:56:13.966Z,101675.75
2023-05-07T11:58:41.948Z,101681.69
2023-05-07T12:01:10.281Z,101682.47
2023-05-07T12:03:38.735Z,101684.97
2023-05-07T12:06:09.707Z,101687.66
2023-05-07T12:08:41.047Z,101689.38
2023-05-07T12:11:10.727Z,101682.34
2023-05-07T12:13:38.168Z,101677.03
2023-05-07T12:16:06.440Z,101683.88
2023-05-07T12:18:34.641Z,101694.59
2023-05-07T12:21:02.284Z,101685.03
2023-05-07T12:23:30.184Z,101682.63
2023-05-07T12:25:57.354Z,101687.69
2023-05-07T12:28:24.553Z,101683.03
2023-05-07T12:30:52.915Z,101679.25
2023-05-07T12:33:24.387Z,101689.66
2023-05-07T12:35:51.542Z,101685.22
2023-05-07T12:38:19.219Z,101685.06
2023-05-07T12:40:48.492Z,101682.94
2023-05-07T12:43:23.087Z,101677.44
2023-05-07T12:45:51.631Z,101679.31
2023-05-07T12:48:20.422Z,101675.13
2023-05-07T12:50:52.028Z,101682.88
2023-05-07T12:53:22.192Z,101683.72
2023-05-07T12:55:51.974Z,101687.69
2023-05-07T12:58:33.759Z,101685.56
2023-05-07T13:01:05.494Z,101687.91
2023-05-07T13:03:34.870Z,101697.81
2023-05-07T13:06:16.145Z,101694.34
2023-05-07T13:08:46.421Z,101694.97
2023-05-07T13:11:14.221Z,101691.28
2023-05-07T13:13:42.096Z,101689.56
2023-05-07T13:16:11.210Z,101693.75
2023-05-07T13:18:41.343Z,101693.88
2023-05-07T13:21:08.938Z,101690.47
2023-05-07T13:23:36.149Z,101686.16
2023-05-07T13:26:08.405Z,101687.81
2023-05-07T13:28:38.715Z,101699.31
2023-05-07T13:31:05.864Z,101695.72
2023-05-07T13:33:33.027Z,101704.16
2023-05-07T13:36:01.658Z,101698.75
2023-05-07T13:38:28.736Z,101692.28
2023-05-07T13:40:56.115Z,101688.78
2023-05-07T13:43:23.173Z,101691.03
2023-05-07T13:45:50.402Z,101691.81
2023-05-07T13:48:17.545Z,101680.75
2023-05-07T13:50:44.676Z,101681.81
2023-05-07T13:53:11.694Z,101682.19
2023-05-07T13:55:38.809Z,101677.25
2023-05-07T13:58:07.702Z,101677.25
2023-05-07T14:00:35.345Z,101680.94
2023-05-07T14:03:02.983Z,101684.91
2023-05-07T14:05:30.179Z,101680.97
2023-05-07T14:08:00.312Z,101681.91
2023-05-07T14:10:27.468Z,101692.47
2023-05-07T14:12:55.296Z,101686.59
2023-05-07T14:15:22.974Z,101693.75
2023-05-07T14:17:50.075Z,101690.31
2023-05-07T14:20:17.343Z,101688.75
2023-05-07T14:22:44.460Z,101687.81
2023-05-07T14:25:11.608Z,101688.03
2023-05-07T14:27:38.739Z,101681.13
2023-05-07T14:30:06.455Z,101689.19
2023-05-07T14:32:34.326Z,101691.06
2023-05-07T14:35:01.836Z,101699.84
2023-05-07T14:37:29.150Z,101712.16
2023-05-07T14:39:56.221Z,101701.75
2023-05-07T14:42:23.278Z,101701.84
2023-05-07T14:44:50.537Z,101708.06
2023-05-07T14:47:19.651Z,101716.91
2023-05-07T14:49:47.065Z,101711.78
2023-05-07T14:52:14.201Z,101719.56
2023-05-07T14:54:41.332Z,101714.28
2023-05-07T14:57:10.775Z,101707.22
2023-05-07T14:59:39.317Z,101706.44
2023-05-07T15:02:09.141Z,101716.94
2023-05-07T15:04:36.521Z,101716.91
2023-05-07T15:07:03.580Z,101719.63
2023-05-07T15:09:30.922Z,101702.28
2023-05-07T15:11:57.993Z,101704.03
2023-05-07T15:14:25.096Z,101703.25
2023-05-07T15:16:52.237Z,101698.91
2023-05-07T15:19:19.296Z,101704.16
2023-05-07T15:21:46.368Z,101708.56
2023-05-07T15:24:13.417Z,101712.06
2023-05-07T15:26:40.729Z,101715.66
2023-05-07T15:29:11.199Z,101722.66
2023-05-07T15:31:39.883Z,101720.97
2023-05-07T15:34:07.326Z,101736.78
2023-05-07T15:36:34.380Z,101743.84
2023-05-07T15:39:03.676Z,101744.72
2023-05-07T15:41:31.409Z,101746.53
2023-05-07T15:43:58.469Z,101749.16
2023-05-07T15:46:26.442Z,101760.63
2023-05-07T15:48:54.720Z,101777.38
2023-05-07T15:51:23.117Z,101795.72
2023-05-07T15:53:51.904Z,101794.72
2023-05-07T15:56:19.081Z,101787.63
2023-05-07T15:58:46.481Z,101797.97
2023-05-07T16:01:13.561Z,101801.34
2023-05-07T16:03:41.717Z,101808.13
2023-05-07T16:06:11.911Z,101801.88
2023-05-07T16:08:40.450Z,101787.97
2023-05-07T16:11:07.576Z,101795.88
2023-05-07T16:13:35.383Z,101786.19
2023-05-07T16:16:03.067Z,101786.06
2023-05-07T16:18:30.183Z,101782.44
2023-05-07T16:20:57.958Z,101784.13
2023-05-07T16:23:25.751Z,101785.81
2023-05-07T16:25:52.876Z,101783.94
2023-05-07T16:28:19.962Z,101803.16
2023-05-07T16:30:47.141Z,101824.94
2023-05-07T16:33:14.242Z,101829.31
2023-05-07T16:35:41.409Z,101831.97
2023-05-07T16:38:11.156Z,101824.16
2023-05-07T16:40:39.762Z,101825.84
2023-05-07T16:43:07.195Z,101818.03
2023-05-07T16:45:34.307Z,101825.84
2023-05-07T16:48:03.196Z,101826.75
2023-05-07T16:50:30.491Z,101813.38
2023-05-07T16:52:57.505Z,101810.06
2023-05-07T16:55:24.731Z,101804.91
2023-05-07T16:57:52.153Z,101797.97
2023-05-07T17:00:19.401Z,101799.75
2023-05-07T17:02:47.180Z,101802.34
2023-05-07T17:05:14.774Z,101805.00
2023-05-07T17:07:42.333Z,101801.59
2023-05-07T17:10:10.284Z,101798.19
2023-05-07T17:12:37.797Z,101792.09
2023-05-07T17:15:05.633Z,101790.44
2023-05-07T17:17:33.231Z,101783.53
2023-05-07T17:20:00.530Z,101791.41
2023-05-07T17:22:27.931Z,101778.38
2023-05-07T17:24:54.992Z,101781.84
2023-05-07T17:27:22.231Z,101782.75
2023-05-07T17:29:49.692Z,101778.38
2023-05-07T17:32:17.016Z,101777.53
2023-05-07T17:34:44.092Z,101781.03
2023-05-07T17:37:11.397Z,101779.34
2023-05-07T17:39:38.542Z,101780.25
2023-05-07T17:42:05.582Z,101794.22
2023-05-07T17:44:33.916Z,101794.25
2023-05-07T17:47:01.487Z,101805.56
2023-05-07T17:49:28.595Z,101804.63
2023-05-07T17:51:55.922Z,101809.84
2023-05-07T17:54:26.151Z,101818.53
2023-05-07T17:56:53.538Z,101818.56
2023-05-07T17:59:20.737Z,101823.81
2023-05-07T18:01:47.967Z,101820.38
2023-05-07T18:04:15.386Z,101823.81
2023-05-07T18:06:43.131Z,101824.66
2023-05-07T18:09:10.247Z,101834.25
2023-05-07T18:11:37.825Z,101831.66
2023-05-07T18:14:05.027Z,101837.78
2023-05-07T18:16:32.356Z,101838.66
2023-05-07T18:18:59.762Z,101839.53
2023-05-07T18:21:27.176Z,101836.88
2023-05-07T18:23:54.900Z,101838.59
2023-05-07T18:26:21.956Z,101839.50
2023-05-07T18:28:49.069Z,101841.19
2023-05-07T18:31:16.228Z,101845.56
2023-05-07T18:33:43.289Z,101846.38
2023-05-07T18:36:10.380Z,101846.34
2023-05-07T18:38:38.742Z,101844.53
2023-05-07T18:41:06.168Z,101840.97
2023-05-07T18:43:34.100Z,101847.91
2023-05-07T18:46:02.017Z,101850.47
2023-05-07T18:48:29.158Z,101843.44
2023-05-07T18:50:56.995Z,101845.16
2023-05-07T18:53:24.120Z,101846.91
2023-05-07T18:55:53.879Z,101850.31
2023-05-07T18:58:21.113Z,101855.53
2023-05-07T19:00:49.084Z,101852.03
2023-05-07T19:03:16.973Z,101848.50
2023-05-07T19:05:45.559Z,101856.34
2023-05-07T19:08:13.068Z,101846.75
2023-05-07T19:10:40.094Z,101857.19
2023-05-07T19:13:07.328Z,101855.38
2023-05-07T19:15:34.430Z,101856.22
2023-05-07T19:18:02.035Z,101845.69
2023-05-07T19:20:29.741Z,101848.25
2023-05-07T19:22:56.926Z,101856.97
2023-05-07T19:25:24.073Z,101852.53
2023-05-07T19:27:51.353Z,101853.38
2023-05-07T19:30:18.760Z,101852.47
2023-05-07T19:32:45.984Z,101859.38
2023-05-07T19:35:13.338Z,101860.13
2023-05-07T19:37:40.703Z,101871.41
2023-05-07T19:40:09.370Z,101866.13
2023-05-07T19:42:36.603Z,101870.38
2023-05-07T19:45:05.065Z,101871.22
2023-05-07T19:47:32.246Z,101878.25
2023-05-07T19:50:02.323Z,101884.31
2023-05-07T19:52:29.453Z,101888.69
2023-05-07T19:54:56.470Z,101886.94
2023-05-07T19:57:23.675Z,101893.91
2023-05-07T19:59:50.725Z,101894.78
2023-05-07T20:02:18.166Z,101901.69
2023-05-07T20:04:45.426Z,101894.69
2023-05-07T20:07:12.525Z,101899.91
2023-05-07T20:09:39.701Z,101902.50
2023-05-07T20:12:07.375Z,101900.69
2023-05-07T20:14:34.732Z,101907.59
2023-05-07T20:17:01.799Z,101908.41
2023-05-07T20:19:28.857Z,101917.88
2023-05-07T20:21:56.783Z,101918.72
2023-05-07T20:24:23.851Z,101920.41
2023-05-07T20:26:51.117Z,101913.41
2023-05-07T20:29:18.494Z,101915.97
2023-05-07T20:31:45.681Z,101922.00
2023-05-07T20:34:12.767Z,101918.41
2023-05-07T20:36:39.881Z,101932.34
2023-05-07T20:39:07.274Z,101926.22
2023-05-07T20:41:34.591Z,101927.88
2023-05-07T20:44:02.668Z,101939.09
2023-05-07T20:46:30.386Z,101933.84
2023-05-07T20:48:57.707Z,101935.53
2023-05-07T20:51:24.882Z,101928.53
2023-05-07T20:53:51.920Z,101931.94
2023-05-07T20:56:18.970Z,101928.41
2023-05-07T20:58:46.099Z,101936.22
2023-05-07T21:01:13.429Z,101940.47
2023-05-07T21:03:40.632Z,101936.09
2023-05-07T21:06:07.681Z,101937.81
2023-05-07T21:08:34.737Z,101937.88
2023-05-07T21:11:01.821Z,101930.91
2023-05-07T21:13:28.901Z,101930.09
2023-05-07T21:15:56.105Z,101937.09
2023-05-07T21:18:25.277Z,101938.88
2023-05-07T21:20:52.281Z,101947.53
2023-05-07T21:23:19.313Z,101948.22
2023-05-07T21:25:47.624Z,101961.31
2023-05-07T21:28:14.787Z,101968.19
2023-05-07T21:30:41.856Z,101955.81
2023-05-07T21:33:08.975Z,101967.06
2023-05-07T21:35:36.589Z,101965.25
2023-05-07T21:38:04.366Z,101963.41
2023-05-07T21:40:31.670Z,101962.66
2023-05-07T21:43:00.313Z,101962.69
2023-05-07T21:45:27.816Z,101964.47
2023-05-07T21:47:55.070Z,101958.31
2023-05-07T21:50:22.419Z,101949.38
2023-05-07T21:52:49.909Z,101955.41
2023-05-07T21:55:20.001Z,101958.09
2023-05-07T21:58:01.218Z,101951.84
2023-05-07T22:00:33.312Z,101962.28
2023-05-07T22:03:01.147Z,101957.81
2023-05-07T22:05:28.350Z,101959.59
2023-05-07T22:07:55.509Z,101962.19
2023-05-07T22:10:23.012Z,101963.03
2023-05-07T22:12:50.625Z,101962.91
2023-05-07T22:15:18.020Z,101969.09
2023-05-07T22:17:45.357Z,101966.38
2023-05-07T22:20:12.824Z,101978.47
2023-05-07T22:23:09.322Z,101977.47
2023-05-07T22:25:36.361Z,101980.84
2023-05-07T22:28:03.538Z,101977.25
2023-05-07T22:30:30.749Z,101973.66
2023-05-07T22:32:57.848Z,101974.53
2023-05-07T22:35:25.172Z,101978.00
2023-05-07T22:37:52.278Z,101978.84
2023-05-07T22:40:19.488Z,101975.38
2023-05-07T22:42:46.534Z,101976.22
2023-05-07T22:45:13.610Z,101976.94
2023-05-07T22:47:40.930Z,101975.19
2023-05-07T22:50:08.394Z,101977.81
2023-05-07T22:52:35.678Z,101982.16
2023-05-07T22:55:02.981Z,101982.13
2023-05-07T22:57:30.514Z,101983.81
2023-05-07T22:59:57.723Z,101983.81
2023-05-07T23:02:26.932Z,101978.59
2023-05-07T23:04:54.521Z,101982.06
2023-05-07T23:07:21.693Z,101973.41
2023-05-07T23:09:48.724Z,101980.34
2023-05-07T23:12:16.132Z,101980.28
2023-05-07T23:14:43.242Z,101981.03
2023-05-07T23:17:10.380Z,101994.78
2023-05-07T23:19:37.661Z,101986.88
2023-05-07T23:22:04.935Z,101992.06
2023-05-07T23:24:32.097Z,101995.44
2023-05-07T23:26:59.151Z,101991.81
2023-05-07T23:29:26.340Z,101988.19
2023-05-07T23:31:53.408Z,101977.66
2023-05-07T23:34:23.987Z,101985.56
2023-05-07T23:36:51.476Z,101987.25
2023-05-07T23:39:19.384Z,101989.03
2023-05-07T23:41:46.441Z,101983.81
2023-05-07T23:44:13.636Z,101987.25
2023-05-07T23:46:40.960Z,101988.91
2023-05-07T23:49:08.050Z,101993.22
2023-05-07T23:51:35.346Z,102000.94
2023-05-07T23:54:02.702Z,101993.03
2023-05-07T23:56:29.957Z,101992.97
2023-05-07T23:58:56.956Z,101986.88
